Time;durP1;ratioP1;P1;durP2;ratioP2;P2;SDS_P1;SDS_P2;PMS_P1;PMS_P2;Temp;Humidity;BMP_temperature;BMP_pressure;BME280_temperature;BME280_humidity;BME280_pressure;Samples;Min_cycle;Max_cycle;Signal;HPM_P1;HPM_P2
2024/01/18 00:02:04;;;;;;;2.10;1.58;;;-1.00;99.90;;;;;;5008105;28;20068;-77
2024/01/18 00:04:31;;;;;;;4.05;2.30;;;-1.00;99.90;;;;;;5040616;28;20044;-76
2024/01/18 00:06:58;;;;;;;2.83;1.60;;;-1.00;99.90;;;;;;5042395;28;20049;-78
2024/01/18 00:09:26;;;;;;;2.55;1.60;;;-1.00;99.90;;;;;;5043091;28;20041;-76
2024/01/18 00:11:53;;;;;;;3.33;2.30;;;-1.00;99.90;;;;;;5010752;28;20053;-76
2024/01/18 00:14:20;;;;;;;3.05;1.60;;;-1.10;99.90;;;;;;5022131;28;20152;-77
2024/01/18 00:16:48;;;;;;;2.20;1.52;;;-1.10;99.90;;;;;;5026183;28;20122;-76
2024/01/18 00:19:15;;;;;;;2.25;1.20;;;-1.10;99.90;;;;;;5043535;28;20124;-76
2024/01/18 00:21:42;;;;;;;1.48;1.05;;;-1.10;99.90;;;;;;5026223;28;20285;-77
2024/01/18 00:24:10;;;;;;;1.88;1.30;;;-1.10;99.90;;;;;;5025401;28;20057;-76
2024/01/18 00:26:37;;;;;;;2.80;1.55;;;-1.10;99.90;;;;;;5026876;28;20068;-76
2024/01/18 00:29:05;;;;;;;3.10;1.65;;;-1.10;99.90;;;;;;5026215;28;20118;-76
2024/01/18 00:31:32;;;;;;;2.67;1.35;;;-1.10;99.90;;;;;;5003148;28;20379;-76
2024/01/18 00:33:59;;;;;;;1.67;1.20;;;-1.10;99.90;;;;;;5024641;28;20068;-76
2024/01/18 00:36:27;;;;;;;2.83;1.45;;;-1.10;99.90;;;;;;5009918;28;20045;-76
2024/01/18 00:38:54;;;;;;;2.35;1.25;;;-1.10;99.90;;;;;;5025850;28;20044;-76
2024/01/18 00:41:21;;;;;;;2.50;1.52;;;-1.10;1.00;;;;;;5043418;28;20129;-76
2024/01/18 00:43:48;;;;;;;2.42;1.40;;;-1.20;1.00;;;;;;5025314;28;20049;-76
2024/01/18 00:46:19;;;;;;;2.50;1.30;;;-1.20;1.00;;;;;;5026532;28;20114;-77
2024/01/18 00:48:46;;;;;;;2.33;1.40;;;-1.10;1.00;;;;;;5042815;28;20458;-76
2024/01/18 00:51:13;;;;;;;2.47;1.30;;;-1.10;1.00;;;;;;5026718;28;20594;-76
2024/01/18 00:53:41;;;;;;;1.95;1.25;;;-1.10;1.00;;;;;;5025226;28;20063;-75
2024/01/18 00:56:11;;;;;;;4.28;1.55;;;-1.10;1.00;;;;;;5026517;28;20067;-76
2024/01/18 00:58:40;;;;;;;3.08;2.03;;;-1.10;1.00;;;;;;5025826;28;20114;-76
2024/01/18 01:01:08;;;;;;;2.50;1.20;;;-1.10;1.00;;;;;;5010120;28;20045;-77
2024/01/18 01:03:35;;;;;;;3.58;1.33;;;-1.20;1.00;;;;;;5006500;28;20052;-76
2024/01/18 01:06:02;;;;;;;2.10;1.20;;;-1.20;1.00;;;;;;5023310;28;20053;-76
2024/01/18 01:08:29;;;;;;;3.90;1.45;;;-1.20;1.00;;;;;;5024418;28;20502;-76
2024/01/18 01:10:56;;;;;;;1.67;1.30;;;-1.20;1.00;;;;;;5025964;28;20481;-77
2024/01/18 01:13:23;;;;;;;2.67;1.63;;;-1.20;1.00;;;;;;5025182;28;20049;-76
2024/01/18 01:15:50;;;;;;;2.42;1.30;;;-1.20;1.00;;;;;;5009775;28;20453;-76
2024/01/18 01:18:17;;;;;;;2.47;1.60;;;-1.20;1.00;;;;;;5009671;28;20072;-76
2024/01/18 01:20:45;;;;;;;2.25;1.38;;;-1.20;1.00;;;;;;5026054;28;20055;-76
2024/01/18 01:23:12;;;;;;;1.30;1.10;;;-1.30;1.00;;;;;;5041399;28;20053;-76
2024/01/18 01:25:39;;;;;;;2.20;1.10;;;-1.30;1.00;;;;;;5025510;28;20624;-76
2024/01/18 01:28:06;;;;;;;1.52;0.88;;;-1.30;1.00;;;;;;5008444;28;20730;-77
2024/01/18 01:30:33;;;;;;;3.97;2.30;;;-1.30;1.00;;;;;;5042515;28;20064;-76
2024/01/18 01:33:00;;;;;;;1.92;1.10;;;-1.30;1.00;;;;;;5041721;28;20049;-76
2024/01/18 01:35:27;;;;;;;2.45;1.27;;;-1.40;1.00;;;;;;5005611;28;20057;-76
2024/01/18 01:37:56;;;;;;;3.97;1.85;;;-1.40;1.00;;;;;;5021234;28;20192;-76
2024/01/18 01:40:23;;;;;;;3.35;1.52;;;-1.40;1.00;;;;;;5021501;28;20080;-77
2024/01/18 01:42:51;;;;;;;3.10;1.52;;;-1.50;1.00;;;;;;5029911;28;20136;-76
2024/01/18 01:45:17;;;;;;;2.42;1.35;;;-1.50;1.00;;;;;;5025371;28;20059;-76
2024/01/18 01:47:44;;;;;;;3.00;1.85;;;-1.50;1.00;;;;;;5041792;28;20048;-76
2024/01/18 01:50:11;;;;;;;3.28;1.50;;;-1.50;1.00;;;;;;5009301;28;20040;-76
2024/01/18 01:52:39;;;;;;;2.33;1.38;;;-1.50;1.00;;;;;;5024810;28;20426;-76
2024/01/18 01:55:09;;;;;;;2.22;1.40;;;-1.60;1.00;;;;;;5008175;28;20087;-75
2024/01/18 01:57:40;;;;;;;3.08;1.90;;;-1.60;1.00;;;;;;5025727;28;20048;-76
2024/01/18 02:00:08;;;;;;;5.55;2.25;;;-1.60;1.00;;;;;;5008958;28;20084;-76
2024/01/18 02:02:35;;;;;;;2.55;1.35;;;-1.60;1.00;;;;;;5025245;28;20049;-76
2024/01/18 02:05:01;;;;;;;3.33;1.55;;;-1.70;1.00;;;;;;5005342;28;20115;-76
2024/01/18 02:07:28;;;;;;;2.72;1.58;;;-1.70;1.00;;;;;;5021143;28;20143;-76
2024/01/18 02:09:56;;;;;;;4.57;1.85;;;-1.70;1.00;;;;;;5020535;28;20049;-76
2024/01/18 02:12:26;;;;;;;4.13;2.38;;;-1.70;1.00;;;;;;5025689;28;20578;-76
2024/01/18 02:14:53;;;;;;;2.90;1.85;;;-1.70;1.00;;;;;;5024953;28;20352;-76
2024/01/18 02:17:20;;;;;;;3.05;1.88;;;-1.70;1.00;;;;;;5009178;28;20148;-76
2024/01/18 02:19:47;;;;;;;2.72;1.65;;;-1.70;1.00;;;;;;5041326;28;20045;-76
2024/01/18 02:22:16;;;;;;;1.80;1.20;;;-1.80;1.00;;;;;;5024657;28;20052;-77
2024/01/18 02:24:49;;;;;;;2.47;1.70;;;-1.70;1.00;;;;;;5040006;28;20087;-76
2024/01/18 02:27:17;;;;;;;3.38;1.50;;;-1.80;1.00;;;;;;5024793;28;20045;-76
2024/01/18 02:29:44;;;;;;;2.17;1.58;;;-1.80;1.00;;;;;;5040444;28;20053;-76
2024/01/18 02:32:11;;;;;;;2.95;1.85;;;-1.80;1.00;;;;;;5026095;28;20044;-76
2024/01/18 02:34:40;;;;;;;3.15;1.83;;;-1.80;1.00;;;;;;5024203;28;20040;-76
2024/01/18 02:37:07;;;;;;;2.55;1.65;;;-1.90;1.00;;;;;;5043253;28;20099;-76
2024/01/18 02:39:34;;;;;;;2.35;1.70;;;-1.80;1.00;;;;;;5047291;28;20089;-77
2024/01/18 02:42:06;;;;;;;3.25;2.10;;;-1.90;1.00;;;;;;5048958;28;20121;-76
2024/01/18 02:44:35;;;;;;;2.88;1.83;;;-1.90;1.00;;;;;;5031672;28;20207;-77
2024/01/18 02:47:02;;;;;;;3.03;2.20;;;-1.90;1.00;;;;;;5032227;28;20080;-76
2024/01/18 02:49:29;;;;;;;2.20;2.00;;;-1.90;1.00;;;;;;5033444;28;20076;-77
2024/01/18 02:51:58;;;;;;;2.25;1.35;;;-1.90;1.00;;;;;;5047415;28;20064;-76
2024/01/18 02:54:25;;;;;;;3.33;1.90;;;-2.00;1.00;;;;;;5048274;28;20152;-76
2024/01/18 02:56:52;;;;;;;3.22;1.75;;;-2.00;1.00;;;;;;5014099;28;20049;-76
2024/01/18 02:59:20;;;;;;;4.32;1.90;;;-2.00;1.00;;;;;;5030100;28;20053;-76
2024/01/18 03:01:47;;;;;;;2.95;1.73;;;-2.00;1.00;;;;;;5048491;28;20045;-76
2024/01/18 03:04:14;;;;;;;3.70;2.40;;;-2.00;1.00;;;;;;5048449;28;20041;-76
2024/01/18 03:06:42;;;;;;;4.32;2.90;;;-2.00;1.00;;;;;;5030591;28;20144;-76
2024/01/18 03:09:12;;;;;;;3.42;2.13;;;-2.10;1.00;;;;;;5046512;28;20049;-75
2024/01/18 03:11:39;;;;;;;3.35;2.03;;;-2.10;1.00;;;;;;5030543;28;20055;-76
2024/01/18 03:14:07;;;;;;;3.38;2.00;;;-2.10;1.00;;;;;;5030138;28;20057;-76
2024/01/18 03:16:36;;;;;;;3.22;1.90;;;-2.10;1.00;;;;;;5048194;28;20045;-76
2024/01/18 03:19:03;;;;;;;1.60;1.27;;;-2.10;1.00;;;;;;5031047;28;20129;-76
2024/01/18 03:21:30;;;;;;;1.88;1.45;;;-2.10;1.00;;;;;;5014213;28;20422;-76
2024/01/18 03:23:57;;;;;;;2.50;1.50;;;-2.20;1.00;;;;;;5029565;28;20103;-76
2024/01/18 03:26:25;;;;;;;2.28;1.52;;;-2.20;1.00;;;;;;5046868;28;20052;-76
2024/01/18 03:28:52;;;;;;;2.00;1.30;;;-2.20;1.00;;;;;;5047240;28;20063;-76
2024/01/18 03:31:18;;;;;;;1.55;1.10;;;-2.30;1.00;;;;;;5030230;28;20059;-76
2024/01/18 03:33:46;;;;;;;1.48;0.98;;;-2.30;1.00;;;;;;5029816;28;20053;-76
2024/01/18 03:36:13;;;;;;;2.30;1.48;;;-2.30;1.00;;;;;;5047111;28;20394;-76
2024/01/18 03:38:40;;;;;;;2.88;1.63;;;-2.40;1.00;;;;;;5047055;28;20045;-76
2024/01/18 03:41:07;;;;;;;2.25;1.30;;;-2.40;1.00;;;;;;5022128;28;20072;-76
2024/01/18 03:43:34;;;;;;;2.85;1.60;;;-2.50;1.00;;;;;;5043442;28;20124;-76
2024/01/18 03:46:01;;;;;;;2.65;1.40;;;-2.50;1.00;;;;;;5047165;28;20049;-76
2024/01/18 03:48:28;;;;;;;2.33;1.40;;;-2.50;1.00;;;;;;5045658;28;20542;-76
2024/01/18 03:50:56;;;;;;;2.53;1.60;;;-2.50;1.00;;;;;;5030180;28;20061;-78
2024/01/18 03:53:32;;;;;;;3.10;1.95;;;-2.50;1.00;;;;;;5028559;28;20170;-76
2024/01/18 03:56:00;;;;;;;3.20;2.08;;;-2.50;1.00;;;;;;5029475;28;20131;-76
2024/01/18 03:58:27;;;;;;;2.45;1.60;;;-2.60;1.00;;;;;;5012318;28;20815;-77
2024/01/18 04:00:54;;;;;;;3.63;2.10;;;-2.60;1.00;;;;;;5029883;28;20045;-77
2024/01/18 04:03:23;;;;;;;2.63;1.70;;;-2.60;1.00;;;;;;5029652;28;20609;-77
2024/01/18 04:05:50;;;;;;;2.53;1.95;;;-2.50;1.00;;;;;;5030518;28;20049;-77
2024/01/18 04:08:17;;;;;;;4.28;2.35;;;-2.60;1.00;;;;;;5045078;28;20053;-77
2024/01/18 04:10:44;;;;;;;4.15;2.30;;;-2.50;1.00;;;;;;5029817;28;20106;-79
2024/01/18 04:13:11;;;;;;;3.30;1.70;;;-2.50;1.00;;;;;;5027989;28;20057;-76
2024/01/18 04:15:38;;;;;;;2.67;1.52;;;-2.50;1.00;;;;;;5013414;28;20057;-76
2024/01/18 04:18:05;;;;;;;3.08;1.75;;;-2.50;1.00;;;;;;5029659;28;20138;-76
2024/01/18 04:20:32;;;;;;;3.70;1.60;;;-2.50;1.00;;;;;;5048001;28;20068;-76
2024/01/18 04:22:59;;;;;;;5.00;1.80;;;-2.50;1.00;;;;;;5044529;28;20053;-76
2024/01/18 04:25:27;;;;;;;2.72;1.67;;;-2.50;1.00;;;;;;5028677;28;20119;-77
2024/01/18 04:27:54;;;;;;;2.50;1.77;;;-2.50;1.00;;;;;;5045643;28;20099;-77
2024/01/18 04:30:21;;;;;;;4.28;2.67;;;-2.60;1.00;;;;;;5045266;28;20051;-77
2024/01/18 04:32:49;;;;;;;2.28;1.75;;;-2.60;1.00;;;;;;5045581;28;20045;-76
2024/01/18 04:35:16;;;;;;;3.10;2.10;;;-2.60;1.00;;;;;;5029554;28;20057;-76
2024/01/18 04:37:43;;;;;;;2.58;1.77;;;-2.60;1.00;;;;;;5028922;28;20049;-76
2024/01/18 04:40:10;;;;;;;2.45;1.55;;;-2.60;1.00;;;;;;5012276;28;20053;-76
2024/01/18 04:42:37;;;;;;;3.03;1.67;;;-2.70;1.00;;;;;;5011949;28;20138;-77
2024/01/18 04:45:06;;;;;;;2.78;1.30;;;-2.70;1.00;;;;;;5011989;28;20045;-76
2024/01/18 04:47:33;;;;;;;2.60;1.48;;;-2.70;1.00;;;;;;5029348;28;20049;-76
2024/01/18 04:50:00;;;;;;;2.30;1.45;;;-2.70;1.00;;;;;;5045625;28;20044;-75
2024/01/18 04:52:27;;;;;;;2.25;1.30;;;-2.70;1.00;;;;;;5044497;28;20537;-76
2024/01/18 04:54:56;;;;;;;2.42;1.83;;;-2.70;1.00;;;;;;5028143;28;20056;-76
2024/01/18 04:57:23;;;;;;;2.10;1.30;;;-2.70;1.00;;;;;;5028742;28;20048;-76
2024/01/18 04:59:50;;;;;;;3.80;1.77;;;-2.70;1.00;;;;;;5026966;28;20041;-76
2024/01/18 05:02:17;;;;;;;2.30;1.60;;;-2.70;1.00;;;;;;5012934;28;20136;-76
2024/01/18 05:04:45;;;;;;;2.55;1.25;;;-2.70;1.00;;;;;;5012565;28;20183;-76
2024/01/18 05:07:12;;;;;;;3.10;1.00;;;-2.80;1.00;;;;;;5044586;28;20502;-76
2024/01/18 05:09:39;;;;;;;2.00;1.17;;;-2.70;1.00;;;;;;5011516;28;20049;-77
2024/01/18 05:12:08;;;;;;;2.30;1.10;;;-2.80;1.00;;;;;;5028256;28;20099;-77
2024/01/18 05:14:39;;;;;;;3.23;1.57;;;-2.80;1.00;;;;;;5028100;28;20117;-75
2024/01/18 05:17:10;;;;;;;2.13;1.20;;;-2.90;1.00;;;;;;5028206;28;20294;-76
2024/01/18 05:19:37;;;;;;;1.85;1.10;;;-2.90;1.00;;;;;;5044795;28;20127;-76
2024/01/18 05:22:04;;;;;;;1.65;1.08;;;-3.00;1.00;;;;;;5027743;28;20056;-78
2024/01/18 05:24:31;;;;;;;0.75;0.70;;;-3.00;1.00;;;;;;5026943;28;20677;-78
2024/01/18 05:26:58;;;;;;;1.20;0.80;;;-3.10;1.00;;;;;;5045342;28;20057;-76
2024/01/18 05:29:26;;;;;;;1.33;0.90;;;-3.10;1.00;;;;;;5027070;28;20053;-77
2024/01/18 05:31:53;;;;;;;1.40;1.00;;;-3.10;1.00;;;;;;5044619;28;20425;-77
2024/01/18 05:34:20;;;;;;;0.75;0.75;;;-3.20;1.00;;;;;;5027556;28;20083;-78
2024/01/18 05:36:48;;;;;;;0.90;0.70;;;-3.20;1.00;;;;;;5044088;28;20061;-76
2024/01/18 05:39:15;;;;;;;1.52;0.80;;;-3.30;1.00;;;;;;5027321;28;20202;-76
2024/01/18 05:41:42;;;;;;;1.00;0.70;;;-3.30;1.00;;;;;;5027533;28;20426;-76
2024/01/18 05:44:10;;;;;;;1.48;0.80;;;-3.30;1.00;;;;;;5026911;28;20483;-76
2024/01/18 05:46:37;;;;;;;1.17;0.70;;;-3.40;1.00;;;;;;5045408;28;20057;-76
2024/01/18 05:49:05;;;;;;;1.42;1.15;;;-3.40;1.00;;;;;;5024287;28;20045;-77
2024/01/18 05:51:32;;;;;;;1.60;0.80;;;-3.50;1.00;;;;;;5018076;28;20124;-77
2024/01/18 05:53:59;;;;;;;1.93;1.00;;;-3.50;1.00;;;;;;5042080;28;20059;-78
2024/01/18 05:56:26;;;;;;;1.17;0.80;;;-3.50;1.00;;;;;;5041049;28;20125;-77
2024/01/18 05:58:53;;;;;;;2.10;1.00;;;-3.60;1.00;;;;;;5039806;28;20692;-77
2024/01/18 06:01:21;;;;;;;1.73;1.17;;;-3.60;1.00;;;;;;5041068;28;20643;-77
2024/01/18 06:03:48;;;;;;;1.50;1.20;;;-3.60;1.00;;;;;;5034129;28;20044;-77
2024/01/18 06:06:15;;;;;;;1.33;1.10;;;-3.60;1.00;;;;;;5036961;28;20067;-78
2024/01/18 06:08:43;;;;;;;1.53;0.87;;;-3.70;1.00;;;;;;5038215;28;20143;-77
2024/01/18 06:11:10;;;;;;;1.60;1.00;;;-3.70;1.00;;;;;;5039904;28;20048;-77
2024/01/18 06:13:39;;;;;;;2.23;1.13;;;-3.80;1.00;;;;;;5023198;28;20045;-78
2024/01/18 06:16:29;;;;;;;2.40;1.30;;;-3.80;1.00;;;;;;5023601;28;20055;-77
2024/01/18 06:18:56;;;;;;;3.33;1.17;;;-3.90;1.00;;;;;;5037313;28;20059;-77
2024/01/18 06:21:24;;;;;;;1.10;0.90;;;-3.90;1.00;;;;;;5035188;28;20045;-77
2024/01/18 06:23:52;;;;;;;1.87;1.07;;;-3.90;1.00;;;;;;5037651;28;20108;-77
2024/01/18 06:26:19;;;;;;;1.13;0.80;;;-3.90;1.00;;;;;;5019812;28;20081;-78
2024/01/18 06:28:45;;;;;;;1.63;1.00;;;-3.80;1.00;;;;;;5014643;28;20053;-78
2024/01/18 06:31:13;;;;;;;1.93;1.27;;;-3.80;1.00;;;;;;5041064;28;20053;-78
2024/01/18 06:33:41;;;;;;;1.90;1.00;;;-3.90;1.00;;;;;;5023541;28;20047;-78
2024/01/18 06:36:09;;;;;;;1.03;0.83;;;-3.90;1.00;;;;;;5021782;28;20554;-77
2024/01/18 06:38:36;;;;;;;1.15;0.90;;;-3.90;1.00;;;;;;5039736;28;20632;-78
2024/01/18 06:41:03;;;;;;;1.52;0.80;;;-4.00;1.00;;;;;;5018524;28;20098;-78
2024/01/18 06:43:30;;;;;;;1.37;0.97;;;-4.00;1.00;;;;;;5040303;28;20057;-78
2024/01/18 06:45:56;;;;;;;1.63;0.90;;;-4.00;1.00;;;;;;5023505;28;20049;-79
2024/01/18 06:48:24;;;;;;;1.93;0.90;;;-4.00;1.00;;;;;;5023546;28;20102;-78
2024/01/18 06:50:51;;;;;;;1.93;1.20;;;-4.00;1.00;;;;;;5041121;28;20084;-78
2024/01/18 06:53:18;;;;;;;0.93;0.70;;;-4.00;1.00;;;;;;5037975;28;20656;-77
2024/01/18 06:55:45;;;;;;;2.40;0.83;;;-4.00;1.00;;;;;;5018214;28;20148;-77
2024/01/18 06:58:12;;;;;;;0.77;0.60;;;-4.00;1.00;;;;;;5019250;28;20045;-77
2024/01/18 07:00:39;;;;;;;0.50;0.50;;;-4.00;1.00;;;;;;5037943;28;20052;-78
2024/01/18 07:03:07;;;;;;;2.17;1.10;;;-4.00;1.00;;;;;;5037799;28;20956;-78
2024/01/18 07:05:34;;;;;;;1.90;0.90;;;-4.00;1.00;;;;;;5037790;28;20049;-78
2024/01/18 07:08:01;;;;;;;2.03;1.00;;;-4.00;1.00;;;;;;5015366;28;20048;-77
2024/01/18 07:10:28;;;;;;;1.40;1.00;;;-4.00;1.00;;;;;;5036977;28;20422;-77
2024/01/18 07:12:55;;;;;;;0.80;0.70;;;-4.00;1.00;;;;;;5039049;28;20057;-77
2024/01/18 07:15:22;;;;;;;1.90;1.17;;;-4.00;1.00;;;;;;5041298;28;20045;-77
2024/01/18 07:17:49;;;;;;;1.10;0.67;;;-4.00;1.00;;;;;;5039240;28;20116;-77
2024/01/18 07:20:16;;;;;;;1.47;1.00;;;-4.00;1.00;;;;;;5037244;28;20467;-78
2024/01/18 07:22:43;;;;;;;1.43;0.80;;;-4.00;1.00;;;;;;5023538;28;20123;-78
2024/01/18 07:25:12;;;;;;;1.50;1.03;;;-4.00;1.00;;;;;;5045207;28;20141;-78
2024/01/18 07:27:39;;;;;;;1.00;0.80;;;-3.90;1.00;;;;;;5042572;28;20391;-78
2024/01/18 07:30:07;;;;;;;1.30;0.80;;;-3.90;1.00;;;;;;5041181;28;20142;-78
2024/01/18 07:32:35;;;;;;;1.00;0.70;;;-3.90;1.00;;;;;;5044934;28;20049;-77
2024/01/18 07:35:02;;;;;;;2.40;1.40;;;-3.90;1.00;;;;;;5045169;28;20563;-77
2024/01/18 07:37:29;;;;;;;1.03;0.70;;;-4.00;1.00;;;;;;5042400;28;20282;-78
2024/01/18 07:39:56;;;;;;;1.45;1.13;;;-4.00;1.00;;;;;;5040331;28;20118;-77
2024/01/18 07:42:23;;;;;;;0.97;0.70;;;-4.00;1.00;;;;;;5042235;28;20064;-78
2024/01/18 07:44:50;;;;;;;1.10;0.87;;;-4.00;1.00;;;;;;5041503;28;20045;-78
2024/01/18 07:47:18;;;;;;;0.87;0.80;;;-4.00;1.00;;;;;;5041370;28;20576;-77
2024/01/18 07:49:46;;;;;;;0.90;0.77;;;-4.00;1.00;;;;;;5037880;28;20056;-76
2024/01/18 07:52:17;;;;;;;1.40;1.30;;;-4.00;1.00;;;;;;5026423;28;20052;-77
2024/01/18 07:54:44;;;;;;;0.80;0.60;;;-4.00;1.00;;;;;;5035907;28;20528;-77
2024/01/18 07:57:12;;;;;;;1.53;0.77;;;-4.00;1.00;;;;;;5025366;28;20651;-77
2024/01/18 07:59:39;;;;;;;1.20;0.80;;;-4.00;1.00;;;;;;5033961;28;20095;-77
2024/01/18 08:02:06;;;;;;;2.70;1.10;;;-4.00;1.00;;;;;;5023995;28;20273;-77
2024/01/18 08:04:33;;;;;;;1.27;0.83;;;-3.90;1.00;;;;;;5022770;28;20420;-76
2024/01/18 08:07:00;;;;;;;1.37;0.87;;;-4.00;1.00;;;;;;5004392;28;20085;-77
2024/01/18 08:09:27;;;;;;;0.82;0.75;;;-4.00;1.00;;;;;;5035836;28;20041;-76
2024/01/18 08:11:54;;;;;;;1.23;0.80;;;-4.00;1.00;;;;;;5043110;28;20049;-76
2024/01/18 08:14:21;;;;;;;1.00;0.70;;;-3.90;1.00;;;;;;5041289;28;20437;-76
2024/01/18 08:16:48;;;;;;;1.37;0.80;;;-3.90;1.00;;;;;;5024113;28;20774;-76
2024/01/18 08:19:15;;;;;;;1.20;1.00;;;-3.90;1.00;;;;;;5026348;28;20071;-76
2024/01/18 08:21:45;;;;;;;0.67;0.67;;;-3.90;1.00;;;;;;5043044;28;20052;-77
2024/01/18 08:24:12;;;;;;;1.90;0.70;;;-3.90;1.00;;;;;;5031957;28;20121;-76
2024/01/18 08:26:40;;;;;;;1.00;0.80;;;-3.90;1.00;;;;;;5023680;28;20111;-77
2024/01/18 08:29:08;;;;;;;0.87;0.77;;;-3.80;1.00;;;;;;5029669;28;20048;-76
2024/01/18 08:31:35;;;;;;;1.80;1.17;;;-3.80;1.00;;;;;;5024070;28;20049;-76
2024/01/18 08:34:02;;;;;;;1.20;1.00;;;-3.70;1.00;;;;;;5028537;28;20046;-77
2024/01/18 08:36:29;;;;;;;1.25;0.63;;;-3.70;1.00;;;;;;5023376;28;20059;-77
2024/01/18 08:38:56;;;;;;;1.35;0.73;;;-3.70;1.00;;;;;;5027692;28;20049;-79
2024/01/18 08:41:23;;;;;;;1.35;0.85;;;-3.70;1.00;;;;;;5045162;28;20057;-81
2024/01/18 08:43:50;;;;;;;1.30;0.85;;;-3.60;1.00;;;;;;5021171;28;20049;-80
2024/01/18 08:46:17;;;;;;;1.30;0.87;;;-3.60;1.00;;;;;;5026981;28;20055;-80
2024/01/18 08:48:45;;;;;;;1.00;0.90;;;-3.60;1.00;;;;;;5040559;28;20045;-79
2024/01/18 08:51:14;;;;;;;1.50;1.23;;;-3.60;1.00;;;;;;5026648;28;20049;-80
2024/01/18 08:53:41;;;;;;;0.63;0.63;;;-3.50;1.00;;;;;;5020172;28;20056;-79
2024/01/18 08:56:08;;;;;;;1.00;0.88;;;-3.50;1.00;;;;;;5007572;28;20041;-79
2024/01/18 08:58:36;;;;;;;1.27;0.90;;;-3.50;1.00;;;;;;5013461;28;20414;-79
2024/01/18 09:01:03;;;;;;;1.52;0.90;;;-3.40;1.00;;;;;;5010836;28;20262;-78
2024/01/18 09:03:30;;;;;;;1.50;1.00;;;-3.40;1.00;;;;;;5025198;28;20584;-80
2024/01/18 09:05:57;;;;;;;0.95;0.82;;;-3.30;1.00;;;;;;5026496;28;20106;-80
2024/01/18 09:08:24;;;;;;;0.90;0.80;;;-3.20;1.00;;;;;;5023967;28;20721;-80
2024/01/18 09:10:52;;;;;;;1.63;1.00;;;-3.20;1.00;;;;;;5042057;28;20099;-80
2024/01/18 09:13:20;;;;;;;1.23;1.00;;;-3.20;1.00;;;;;;5006419;28;20046;-80
2024/01/18 09:15:51;;;;;;;2.05;1.17;;;-3.10;1.00;;;;;;5042693;28;20064;-80
2024/01/18 09:18:18;;;;;;;2.38;1.27;;;-3.10;1.00;;;;;;5019954;28;20107;-80
2024/01/18 09:20:45;;;;;;;2.70;1.17;;;-3.00;1.00;;;;;;5016786;28;20053;-78
2024/01/18 09:23:12;;;;;;;1.58;1.00;;;-2.90;1.00;;;;;;5013385;28;20142;-78
2024/01/18 09:25:42;;;;;;;1.33;0.95;;;-2.90;1.00;;;;;;5019626;28;20063;-78
2024/01/18 09:28:09;;;;;;;0.98;0.90;;;-2.80;1.00;;;;;;5016658;28;20064;-80
2024/01/18 09:30:36;;;;;;;2.88;1.58;;;-2.80;1.00;;;;;;5032622;28;20048;-79
2024/01/18 09:33:09;;;;;;;2.05;1.27;;;-2.70;1.00;;;;;;5008099;28;20457;-79
2024/01/18 09:35:38;;;;;;;1.65;1.17;;;-2.70;1.00;;;;;;5003253;28;20199;-80
2024/01/18 09:38:05;;;;;;;2.42;1.00;;;-2.60;1.00;;;;;;5015717;28;20057;-77
2024/01/18 09:40:32;;;;;;;3.35;1.52;;;-2.50;1.00;;;;;;5035320;28;20121;-80
2024/01/18 09:42:59;;;;;;;1.73;1.20;;;-2.50;1.00;;;;;;5017550;28;20485;-79
2024/01/18 09:45:26;;;;;;;2.35;1.50;;;-2.40;1.00;;;;;;5032519;28;20060;-79
2024/01/18 09:47:54;;;;;;;2.05;1.33;;;-2.40;1.00;;;;;;5005725;28;20152;-78
2024/01/18 09:50:21;;;;;;;3.45;1.90;;;-2.30;1.00;;;;;;5019346;28;20128;-82
2024/01/18 09:52:49;;;;;;;2.28;1.38;;;-2.30;1.00;;;;;;5015832;28;20049;-80
2024/01/18 09:55:17;;;;;;;2.80;1.45;;;-2.20;1.00;;;;;;5002062;28;20855;-78
2024/01/18 09:57:47;;;;;;;2.17;1.50;;;-2.20;1.00;;;;;;5015020;28;20061;-75
2024/01/18 10:00:15;;;;;;;2.35;1.55;;;-2.10;1.00;;;;;;5011474;28;20063;-73
2024/01/18 10:02:43;;;;;;;2.58;1.40;;;-2.10;1.00;;;;;;5033538;28;20056;-77
2024/01/18 10:05:11;;;;;;;2.53;1.50;;;-2.00;1.00;;;;;;5030467;28;20115;-74
2024/01/18 10:07:39;;;;;;;2.17;1.35;;;-1.90;1.00;;;;;;5037438;28;20124;-77
2024/01/18 10:10:08;;;;;;;2.35;1.40;;;-1.90;1.00;;;;;;5038000;28;20056;-75
2024/01/18 10:12:35;;;;;;;2.30;1.48;;;-1.80;1.00;;;;;;5038616;28;20182;-76
2024/01/18 10:15:02;;;;;;;2.30;1.65;;;-1.80;1.00;;;;;;5039377;28;20048;-76
2024/01/18 10:17:29;;;;;;;2.72;1.70;;;-1.70;1.00;;;;;;5039224;28;20084;-76
2024/01/18 10:19:57;;;;;;;1.80;1.20;;;-1.60;1.00;;;;;;5042379;28;20076;-76
2024/01/18 10:22:24;;;;;;;1.75;1.35;;;-1.60;1.00;;;;;;5040461;28;20057;-76
2024/01/18 10:24:52;;;;;;;3.17;1.35;;;-1.50;1.00;;;;;;5039381;28;20083;-77
2024/01/18 10:27:19;;;;;;;2.13;1.40;;;-1.40;1.00;;;;;;5042964;28;20064;-78
2024/01/18 10:29:46;;;;;;;2.40;1.33;;;-1.40;1.00;;;;;;5024205;28;20654;-79
2024/01/18 10:32:13;;;;;;;2.95;1.42;;;-1.30;1.00;;;;;;5023905;28;20059;-79
2024/01/18 10:34:40;;;;;;;1.40;1.08;;;-1.30;1.00;;;;;;5024226;28;20883;-79
2024/01/18 10:37:08;;;;;;;1.50;1.05;;;-1.20;1.00;;;;;;5041644;28;20051;-79
2024/01/18 10:39:41;;;;;;;2.42;1.60;;;-1.10;1.00;;;;;;5040099;28;20075;-78
2024/01/18 10:42:09;;;;;;;;;;;-1.10;1.00;;;;;;5035760;28;20112;-78
2024/01/18 10:44:45;;;;;;;2.08;1.25;;;-1.00;1.00;;;;;;5028361;28;19921;-78
2024/01/18 10:47:13;;;;;;;2.05;1.17;;;-0.90;1.00;;;;;;5039307;28;20439;-77
2024/01/18 10:49:41;;;;;;;2.25;1.40;;;-0.90;1.00;;;;;;5038178;28;20048;-78
2024/01/18 10:52:09;;;;;;;2.90;1.88;;;-0.80;1.00;;;;;;5037239;28;20665;-77
2024/01/18 10:54:37;;;;;;;2.55;1.50;;;-0.80;1.00;;;;;;5040363;28;20049;-77
2024/01/18 10:57:10;;;;;;;3.92;1.60;;;-0.80;1.00;;;;;;5040151;28;20041;-77
2024/01/18 10:59:37;;;;;;;1.77;1.10;;;-0.70;1.00;;;;;;5041458;28;20247;-78
2024/01/18 11:02:04;;;;;;;1.75;1.20;;;-0.70;1.00;;;;;;5041794;28;20114;-78
2024/01/18 11:04:31;;;;;;;2.25;1.63;;;-0.60;1.00;;;;;;5027075;28;20080;-77
2024/01/18 11:06:59;;;;;;;1.90;1.38;;;-0.60;1.00;;;;;;5046369;28;20053;-77
2024/01/18 11:09:27;;;;;;;1.85;1.15;;;-0.50;1.00;;;;;;5044135;28;20126;-78
2024/01/18 11:11:54;;;;;;;1.52;1.15;;;-0.40;1.00;;;;;;5045122;28;20049;-77
2024/01/18 11:14:21;;;;;;;1.77;1.42;;;-0.30;1.00;;;;;;5026933;28;20132;-84
2024/01/18 11:16:48;;;;;;;1.42;1.13;;;-0.30;1.00;;;;;;5042509;28;20761;-80
2024/01/18 11:19:37;;;;;;;3.53;1.35;;;-0.20;1.00;;;;;;5022353;28;20041;-80
2024/01/18 11:22:05;;;;;;;2.58;1.48;;;-0.10;1.00;;;;;;5019864;28;20048;-81
2024/01/18 11:24:33;;;;;;;3.25;2.05;;;0.00;1.00;;;;;;5018653;28;20061;-81
2024/01/18 11:27:00;;;;;;;2.58;1.70;;;0.10;1.00;;;;;;5002414;28;20049;-81
2024/01/18 11:29:27;;;;;;;3.55;2.42;;;0.20;1.00;;;;;;5020957;28;20110;-79
2024/01/18 11:31:54;;;;;;;4.43;2.40;;;0.30;1.00;;;;;;5038502;28;20951;-81
2024/01/18 11:34:34;;;;;;;3.85;2.00;;;0.30;1.00;;;;;;5020487;28;20041;-82
2024/01/18 11:37:09;;;;;;;2.33;1.80;;;0.40;1.00;;;;;;5024161;28;20053;-81
2024/01/18 11:39:48;;;;;;;3.92;2.40;;;0.50;1.00;;;;;;5037101;28;20044;-82
2024/01/18 11:42:19;;;;;;;2.33;1.60;;;0.50;1.00;;;;;;5037824;28;20505;-83
2024/01/18 11:44:53;;;;;;;4.20;2.10;;;0.50;1.00;;;;;;5003916;28;20045;-81
2024/01/18 11:47:24;;;;;;;5.05;2.25;;;0.60;1.00;;;;;;5021087;28;20048;-81
2024/01/18 11:49:51;;;;;;;5.28;2.67;;;0.70;1.00;;;;;;5019927;28;20052;-82
2024/01/18 11:52:18;;;;;;;7.00;3.33;;;0.70;1.00;;;;;;5014724;28;20059;-82
2024/01/18 11:54:45;;;;;;;6.47;2.75;;;0.80;1.00;;;;;;5017877;28;20517;-80
2024/01/18 11:57:13;;;;;;;5.88;3.67;;;0.90;1.00;;;;;;5037934;28;20068;-82
2024/01/18 11:59:41;;;;;;;6.13;4.28;;;0.90;1.00;;;;;;5036709;28;20041;-81
2024/01/18 12:02:10;;;;;;;4.78;3.17;;;1.00;1.00;;;;;;5037431;28;20107;-82
2024/01/18 12:04:37;;;;;;;5.85;3.58;;;1.20;1.00;;;;;;5039669;28;20113;-82
2024/01/18 12:07:05;;;;;;;4.95;2.97;;;1.30;1.00;;;;;;5025298;28;20143;-85
2024/01/18 12:09:34;;;;;;;7.70;3.60;;;1.40;1.00;;;;;;5025356;28;20060;-87
2024/01/18 12:12:01;;;;;;;5.13;3.25;;;1.50;1.00;;;;;;5027813;28;20126;-84
2024/01/18 12:14:29;;;;;;;4.65;3.00;;;1.60;1.00;;;;;;5025792;28;20049;-79
2024/01/18 12:16:56;;;;;;;6.22;4.28;;;1.70;1.00;;;;;;5042627;28;20056;-85
2024/01/18 12:19:34;;;;;;;5.32;3.30;;;1.80;1.00;;;;;;5026868;28;20045;-83
2024/01/18 12:22:17;;;;;;;5.25;3.65;;;1.90;1.00;;;;;;5012540;28;20053;-83
2024/01/18 12:24:47;;;;;;;5.82;3.33;;;2.10;1.00;;;;;;5012733;28;20607;-83
2024/01/18 12:27:14;;;;;;;4.85;3.58;;;2.30;1.00;;;;;;5039171;28;20048;-83
2024/01/18 12:29:41;;;;;;;6.10;3.70;;;2.40;1.00;;;;;;5038148;28;20088;-81
2024/01/18 12:32:09;;;;;;;6.35;3.53;;;2.50;1.00;;;;;;5037235;28;20052;-82
2024/01/18 12:34:37;;;;;;;4.13;2.75;;;2.60;1.00;;;;;;5004504;28;20053;-81
2024/01/18 12:37:05;;;;;;;4.95;3.15;;;2.80;1.00;;;;;;5020330;28;20045;-81
2024/01/18 12:39:33;;;;;;;5.10;3.40;;;2.90;1.00;;;;;;5036602;28;20063;-81
2024/01/18 12:42:01;;;;;;;5.35;3.30;;;3.00;1.00;;;;;;5035647;28;20360;-82
2024/01/18 12:44:29;;;;;;;5.35;3.30;;;3.10;1.00;;;;;;5035927;28;20060;-82
2024/01/18 12:46:56;;;;;;;3.45;2.85;;;3.30;1.00;;;;;;5003915;28;20153;-81
2024/01/18 12:49:23;;;;;;;4.35;3.15;;;3.50;1.00;;;;;;5036178;28;20045;-81
2024/01/18 12:51:55;;;;;;;4.30;3.10;;;3.60;1.00;;;;;;5035646;28;20068;-82
2024/01/18 12:54:27;;;;;;;4.10;3.22;;;3.80;1.00;;;;;;5035499;28;20045;-81
2024/01/18 12:56:58;;;;;;;4.97;3.50;;;3.80;1.00;;;;;;5032606;28;20138;-81
2024/01/18 12:59:26;;;;;;;3.40;2.50;;;3.90;1.00;;;;;;5036011;28;20049;-82
2024/01/18 13:01:53;;;;;;;4.80;3.28;;;4.10;1.00;;;;;;5020273;28;20126;-82